sensor_id;sensor_type;location;lat;lon;timestamp;temperature;humidity
52034;DHT22;38045;52.988;6.536;2023-03-01T00:00:46;0.10;99.90
52034;DHT22;38045;52.988;6.536;2023-03-01T00:03:12;0.10;99.90
52034;DHT22;38045;52.988;6.536;2023-03-01T00:05:44;0.10;99.90
52034;DHT22;38045;52.988;6.536;2023-03-01T00:08:11;0.10;99.90
52034;DHT22;38045;52.988;6.536;2023-03-01T00:10:36;0.10;99.90
52034;DHT22;38045;52.988;6.536;2023-03-01T00:13:02;0.00;99.90
52034;DHT22;38045;52.988;6.536;2023-03-01T00:15:31;-0.10;99.90
52034;DHT22;38045;52.988;6.536;2023-03-01T00:17:56;-0.10;99.90
52034;DHT22;38045;52.988;6.536;2023-03-01T00:20:22;-0.20;99.90
52034;DHT22;38045;52.988;6.536;2023-03-01T00:22:48;-0.20;99.90
52034;DHT22;38045;52.988;6.536;2023-03-01T00:25:14;-0.30;99.90
52034;DHT22;38045;52.988;6.536;2023-03-01T00:27:39;-0.30;99.90
52034;DHT22;38045;52.988;6.536;2023-03-01T00:30:05;-0.30;99.90
52034;DHT22;38045;52.988;6.536;2023-03-01T00:32:31;-0.30;99.90
52034;DHT22;38045;52.988;6.536;2023-03-01T00:34:57;-0.30;99.90
52034;DHT22;38045;52.988;6.536;2023-03-01T00:37:23;-0.40;99.90
52034;DHT22;38045;52.988;6.536;2023-03-01T00:39:49;-0.40;99.90
52034;DHT22;38045;52.988;6.536;2023-03-01T00:42:15;-0.40;99.90
52034;DHT22;38045;52.988;6.536;2023-03-01T00:44:41;-0.40;99.90
52034;DHT22;38045;52.988;6.536;2023-03-01T00:47:07;-0.40;99.90
52034;DHT22;38045;52.988;6.536;2023-03-01T00:49:33;-0.30;99.90
52034;DHT22;38045;52.988;6.536;2023-03-01T00:51:59;-0.30;99.90
52034;DHT22;38045;52.988;6.536;2023-03-01T00:54:25;-0.20;99.90
52034;DHT22;38045;52.988;6.536;2023-03-01T00:56:50;-0.20;99.90
52034;DHT22;38045;52.988;6.536;2023-03-01T00:59:16;-0.20;99.90
52034;DHT22;38045;52.988;6.536;2023-03-01T01:01:41;-0.20;99.90
52034;DHT22;38045;52.988;6.536;2023-03-01T01:04:10;-0.20;99.90
52034;DHT22;38045;52.988;6.536;2023-03-01T01:06:39;-0.10;99.90
52034;DHT22;38045;52.988;6.536;2023-03-01T01:09:09;-0.10;99.90
52034;DHT22;38045;52.988;6.536;2023-03-01T01:11:35;-0.10;99.90
52034;DHT22;38045;52.988;6.536;2023-03-01T01:14:02;-0.10;99.90
52034;DHT22;38045;52.988;6.536;2023-03-01T01:16:29;-0.10;99.90
52034;DHT22;38045;52.988;6.536;2023-03-01T01:18:56;-0.10;99.90
52034;DHT22;38045;52.988;6.536;2023-03-01T01:21:23;-0.10;99.90
52034;DHT22;38045;52.988;6.536;2023-03-01T01:23:49;-0.20;99.90
52034;DHT22;38045;52.988;6.536;2023-03-01T01:26:18;-0.20;99.90
52034;DHT22;38045;52.988;6.536;2023-03-01T01:28:44;-0.30;99.90
52034;DHT22;38045;52.988;6.536;2023-03-01T01:31:10;-0.30;99.90
52034;DHT22;38045;52.988;6.536;2023-03-01T01:33:36;-0.40;99.90
52034;DHT22;38045;52.988;6.536;2023-03-01T01:36:04;-0.40;99.90
52034;DHT22;38045;52.988;6.536;2023-03-01T01:38:29;-0.50;99.90
52034;DHT22;38045;52.988;6.536;2023-03-01T01:40:55;-0.60;99.90
52034;DHT22;38045;52.988;6.536;2023-03-01T01:45:49;-0.80;99.90
52034;DHT22;38045;52.988;6.536;2023-03-01T01:48:23;-0.80;99.90
52034;DHT22;38045;52.988;6.536;2023-03-01T01:50:59;-0.90;99.90
52034;DHT22;38045;52.988;6.536;2023-03-01T01:53:25;-1.00;99.90
52034;DHT22;38045;52.988;6.536;2023-03-01T01:55:55;-0.90;99.90
52034;DHT22;38045;52.988;6.536;2023-03-01T01:58:25;-0.90;99.90
52034;DHT22;38045;52.988;6.536;2023-03-01T02:00:52;-0.90;99.90
52034;DHT22;38045;52.988;6.536;2023-03-01T02:03:22;-0.90;99.90
52034;DHT22;38045;52.988;6.536;2023-03-01T02:08:33;-1.00;99.90
52034;DHT22;38045;52.988;6.536;2023-03-01T02:11:01;-1.00;99.90
52034;DHT22;38045;52.988;6.536;2023-03-01T02:13:30;-1.00;99.90
52034;DHT22;38045;52.988;6.536;2023-03-01T02:15:56;-1.00;99.90
52034;DHT22;38045;52.988;6.536;2023-03-01T02:18:23;-1.00;99.90
52034;DHT22;38045;52.988;6.536;2023-03-01T02:21:04;-1.00;99.90
52034;DHT22;38045;52.988;6.536;2023-03-01T02:23:31;-1.10;99.90
52034;DHT22;38045;52.988;6.536;2023-03-01T02:28:35;-1.10;99.90
52034;DHT22;38045;52.988;6.536;2023-03-01T02:31:02;-1.10;99.90
52034;DHT22;38045;52.988;6.536;2023-03-01T02:33:47;-1.10;99.90
52034;DHT22;38045;52.988;6.536;2023-03-01T02:36:19;-1.10;99.90
52034;DHT22;38045;52.988;6.536;2023-03-01T02:38:47;-1.10;99.90
52034;DHT22;38045;52.988;6.536;2023-03-01T02:41:15;-1.20;99.90
52034;DHT22;38045;52.988;6.536;2023-03-01T02:43:41;-1.30;99.90
52034;DHT22;38045;52.988;6.536;2023-03-01T02:46:20;-1.30;99.90
52034;DHT22;38045;52.988;6.536;2023-03-01T02:48:50;-1.30;99.90
52034;DHT22;38045;52.988;6.536;2023-03-01T02:51:34;-1.30;99.90
52034;DHT22;38045;52.988;6.536;2023-03-01T02:56:41;-1.40;99.90
52034;DHT22;38045;52.988;6.536;2023-03-01T02:59:07;-1.40;99.90
52034;DHT22;38045;52.988;6.536;2023-03-01T03:01:33;-1.50;99.90
52034;DHT22;38045;52.988;6.536;2023-03-01T03:04:08;-1.60;99.90
52034;DHT22;38045;52.988;6.536;2023-03-01T03:06:35;-1.60;99.90
52034;DHT22;38045;52.988;6.536;2023-03-01T03:09:01;-1.60;99.90
52034;DHT22;38045;52.988;6.536;2023-03-01T03:11:27;-1.70;99.90
52034;DHT22;38045;52.988;6.536;2023-03-01T03:13:53;-1.70;99.90
52034;DHT22;38045;52.988;6.536;2023-03-01T03:16:19;-1.70;99.90
52034;DHT22;38045;52.988;6.536;2023-03-01T03:18:45;-1.70;99.90
52034;DHT22;38045;52.988;6.536;2023-03-01T03:21:12;-1.70;99.90
52034;DHT22;38045;52.988;6.536;2023-03-01T03:23:38;-1.70;99.90
52034;DHT22;38045;52.988;6.536;2023-03-01T03:26:04;-1.70;99.90
52034;DHT22;38045;52.988;6.536;2023-03-01T03:28:31;-1.70;99.90
52034;DHT22;38045;52.988;6.536;2023-03-01T03:30:57;-1.80;99.90
52034;DHT22;38045;52.988;6.536;2023-03-01T03:33:24;-1.80;99.90
52034;DHT22;38045;52.988;6.536;2023-03-01T03:35:50;-1.80;99.90
52034;DHT22;38045;52.988;6.536;2023-03-01T03:38:18;-1.80;99.90
52034;DHT22;38045;52.988;6.536;2023-03-01T03:40:50;-1.90;99.90
52034;DHT22;38045;52.988;6.536;2023-03-01T03:43:18;-1.90;99.90
52034;DHT22;38045;52.988;6.536;2023-03-01T03:45:45;-1.90;99.90
52034;DHT22;38045;52.988;6.536;2023-03-01T03:48:11;-1.90;99.90
52034;DHT22;38045;52.988;6.536;2023-03-01T03:50:38;-1.90;99.90
52034;DHT22;38045;52.988;6.536;2023-03-01T03:53:07;-1.90;99.90
52034;DHT22;38045;52.988;6.536;2023-03-01T03:55:33;-1.90;99.90
52034;DHT22;38045;52.988;6.536;2023-03-01T03:58:01;-1.90;99.90
52034;DHT22;38045;52.988;6.536;2023-03-01T04:00:33;-1.90;99.90
52034;DHT22;38045;52.988;6.536;2023-03-01T04:03:00;-2.00;99.90
52034;DHT22;38045;52.988;6.536;2023-03-01T04:05:26;-2.00;99.90
52034;DHT22;38045;52.988;6.536;2023-03-01T04:07:52;-2.10;99.90
52034;DHT22;38045;52.988;6.536;2023-03-01T04:10:31;-2.00;99.90
52034;DHT22;38045;52.988;6.536;2023-03-01T04:12:57;-2.00;99.90
52034;DHT22;38045;52.988;6.536;2023-03-01T04:15:24;-2.00;99.90
52034;DHT22;38045;52.988;6.536;2023-03-01T04:17:52;-2.00;99.90
52034;DHT22;38045;52.988;6.536;2023-03-01T04:20:21;-2.00;99.90
52034;DHT22;38045;52.988;6.536;2023-03-01T04:22:59;-2.00;99.90
52034;DHT22;38045;52.988;6.536;2023-03-01T04:25:25;-2.00;99.90
52034;DHT22;38045;52.988;6.536;2023-03-01T04:27:50;-2.00;99.90
52034;DHT22;38045;52.988;6.536;2023-03-01T04:30:16;-2.00;99.90
52034;DHT22;38045;52.988;6.536;2023-03-01T04:32:42;-2.00;99.90
52034;DHT22;38045;52.988;6.536;2023-03-01T04:35:08;-2.10;99.90
52034;DHT22;38045;52.988;6.536;2023-03-01T04:37:34;-2.20;99.90
52034;DHT22;38045;52.988;6.536;2023-03-01T04:40:02;-2.20;99.90
52034;DHT22;38045;52.988;6.536;2023-03-01T04:42:42;-2.20;99.90
52034;DHT22;38045;52.988;6.536;2023-03-01T04:45:08;-2.30;99.90
52034;DHT22;38045;52.988;6.536;2023-03-01T04:47:42;-2.30;99.90
52034;DHT22;38045;52.988;6.536;2023-03-01T04:50:10;-2.30;99.90
52034;DHT22;38045;52.988;6.536;2023-03-01T04:52:37;-2.40;99.90
52034;DHT22;38045;52.988;6.536;2023-03-01T04:55:03;-2.40;99.90
52034;DHT22;38045;52.988;6.536;2023-03-01T04:57:30;-2.40;99.90
52034;DHT22;38045;52.988;6.536;2023-03-01T04:59:55;-2.40;99.90
52034;DHT22;38045;52.988;6.536;2023-03-01T05:02:21;-2.30;99.90
52034;DHT22;38045;52.988;6.536;2023-03-01T05:04:47;-2.30;99.90
52034;DHT22;38045;52.988;6.536;2023-03-01T05:07:12;-2.40;99.90
52034;DHT22;38045;52.988;6.536;2023-03-01T05:09:47;-2.40;99.90
52034;DHT22;38045;52.988;6.536;2023-03-01T05:12:13;-2.40;99.90
52034;DHT22;38045;52.988;6.536;2023-03-01T05:14:40;-2.40;99.90
52034;DHT22;38045;52.988;6.536;2023-03-01T05:17:06;-2.40;99.90
52034;DHT22;38045;52.988;6.536;2023-03-01T05:19:33;-2.50;99.90
52034;DHT22;38045;52.988;6.536;2023-03-01T05:21:58;-2.50;99.90
52034;DHT22;38045;52.988;6.536;2023-03-01T05:24:31;-2.50;99.90
52034;DHT22;38045;52.988;6.536;2023-03-01T05:26:56;-2.50;99.90
52034;DHT22;38045;52.988;6.536;2023-03-01T05:29:23;-2.60;99.90
52034;DHT22;38045;52.988;6.536;2023-03-01T05:31:59;-2.60;99.90
52034;DHT22;38045;52.988;6.536;2023-03-01T05:34:28;-2.60;99.90
52034;DHT22;38045;52.988;6.536;2023-03-01T05:36:54;-2.60;99.90
52034;DHT22;38045;52.988;6.536;2023-03-01T05:39:21;-2.60;99.90
52034;DHT22;38045;52.988;6.536;2023-03-01T05:41:48;-2.60;99.90
52034;DHT22;38045;52.988;6.536;2023-03-01T05:44:16;-2.60;99.90
52034;DHT22;38045;52.988;6.536;2023-03-01T05:46:42;-2.70;99.90
52034;DHT22;38045;52.988;6.536;2023-03-01T05:49:08;-2.60;99.90
52034;DHT22;38045;52.988;6.536;2023-03-01T05:51:33;-2.70;99.90
52034;DHT22;38045;52.988;6.536;2023-03-01T05:53:59;-2.60;99.90
52034;DHT22;38045;52.988;6.536;2023-03-01T05:56:24;-2.70;99.90
52034;DHT22;38045;52.988;6.536;2023-03-01T05:58:50;-2.70;99.90
52034;DHT22;38045;52.988;6.536;2023-03-01T06:01:16;-2.70;99.90
52034;DHT22;38045;52.988;6.536;2023-03-01T06:03:42;-2.80;99.90
52034;DHT22;38045;52.988;6.536;2023-03-01T06:06:07;-2.80;99.90
52034;DHT22;38045;52.988;6.536;2023-03-01T06:08:33;-2.80;99.90
52034;DHT22;38045;52.988;6.536;2023-03-01T06:10:58;-2.80;99.90
52034;DHT22;38045;52.988;6.536;2023-03-01T06:13:24;-2.80;99.90
52034;DHT22;38045;52.988;6.536;2023-03-01T06:15:50;-2.80;99.90
52034;DHT22;38045;52.988;6.536;2023-03-01T06:18:16;-2.80;99.90
52034;DHT22;38045;52.988;6.536;2023-03-01T06:20:41;-2.80;99.90
52034;DHT22;38045;52.988;6.536;2023-03-01T06:23:07;-2.80;99.90
52034;DHT22;38045;52.988;6.536;2023-03-01T06:25:33;-2.80;99.90
52034;DHT22;38045;52.988;6.536;2023-03-01T06:27:58;-2.80;99.90
52034;DHT22;38045;52.988;6.536;2023-03-01T06:30:25;-2.80;99.90
52034;DHT22;38045;52.988;6.536;2023-03-01T06:32:51;-2.80;99.90
52034;DHT22;38045;52.988;6.536;2023-03-01T06:35:18;-2.70;99.90
52034;DHT22;38045;52.988;6.536;2023-03-01T06:37:45;-2.70;99.90
52034;DHT22;38045;52.988;6.536;2023-03-01T06:40:11;-2.60;99.90
52034;DHT22;38045;52.988;6.536;2023-03-01T06:42:40;-2.60;99.90
52034;DHT22;38045;52.988;6.536;2023-03-01T06:45:07;-2.50;99.90
52034;DHT22;38045;52.988;6.536;2023-03-01T06:47:33;-2.50;99.90
52034;DHT22;38045;52.988;6.536;2023-03-01T06:50:00;-2.40;99.90
52034;DHT22;38045;52.988;6.536;2023-03-01T06:52:26;-2.40;99.90
52034;DHT22;38045;52.988;6.536;2023-03-01T06:54:52;-2.40;99.90
52034;DHT22;38045;52.988;6.536;2023-03-01T06:57:18;-2.40;99.90
52034;DHT22;38045;52.988;6.536;2023-03-01T06:59:43;-2.40;99.90
52034;DHT22;38045;52.988;6.536;2023-03-01T07:02:11;-2.40;99.90
52034;DHT22;38045;52.988;6.536;2023-03-01T07:04:37;-2.30;99.90
52034;DHT22;38045;52.988;6.536;2023-03-01T07:07:03;-2.30;99.90
52034;DHT22;38045;52.988;6.536;2023-03-01T07:09:28;-2.30;99.90
52034;DHT22;38045;52.988;6.536;2023-03-01T07:11:54;-2.30;99.90
52034;DHT22;38045;52.988;6.536;2023-03-01T07:14:20;-2.10;99.90
52034;DHT22;38045;52.988;6.536;2023-03-01T07:16:46;-2.10;99.90
52034;DHT22;38045;52.988;6.536;2023-03-01T07:19:11;-2.00;99.90
52034;DHT22;38045;52.988;6.536;2023-03-01T07:21:38;-1.90;99.90
52034;DHT22;38045;52.988;6.536;2023-03-01T07:24:06;-1.80;99.90
52034;DHT22;38045;52.988;6.536;2023-03-01T07:26:32;-1.80;99.90
52034;DHT22;38045;52.988;6.536;2023-03-01T07:29:02;-1.70;99.90
52034;DHT22;38045;52.988;6.536;2023-03-01T07:31:28;-1.60;99.90
52034;DHT22;38045;52.988;6.536;2023-03-01T07:33:54;-1.50;99.90
52034;DHT22;38045;52.988;6.536;2023-03-01T07:36:20;-1.40;99.90
52034;DHT22;38045;52.988;6.536;2023-03-01T07:38:46;-1.30;99.90
52034;DHT22;38045;52.988;6.536;2023-03-01T07:41:12;-1.20;99.90
52034;DHT22;38045;52.988;6.536;2023-03-01T07:43:38;-1.10;99.90
52034;DHT22;38045;52.988;6.536;2023-03-01T07:46:04;-1.00;99.90
52034;DHT22;38045;52.988;6.536;2023-03-01T07:48:31;-1.00;99.90
52034;DHT22;38045;52.988;6.536;2023-03-01T07:51:04;-0.90;99.90
52034;DHT22;38045;52.988;6.536;2023-03-01T07:53:31;-0.70;99.90
52034;DHT22;38045;52.988;6.536;2023-03-01T07:56:05;-0.60;99.90
52034;DHT22;38045;52.988;6.536;2023-03-01T07:58:31;-0.50;99.90
52034;DHT22;38045;52.988;6.536;2023-03-01T08:01:00;-0.40;99.90
52034;DHT22;38045;52.988;6.536;2023-03-01T08:03:26;-0.20;99.90
52034;DHT22;38045;52.988;6.536;2023-03-01T08:05:51;-0.10;99.90
52034;DHT22;38045;52.988;6.536;2023-03-01T08:08:17;0.00;99.90
52034;DHT22;38045;52.988;6.536;2023-03-01T08:10:42;0.10;99.90
52034;DHT22;38045;52.988;6.536;2023-03-01T08:13:08;0.20;99.90
52034;DHT22;38045;52.988;6.536;2023-03-01T08:15:34;0.30;99.90
52034;DHT22;38045;52.988;6.536;2023-03-01T08:17:59;0.50;99.90
52034;DHT22;38045;52.988;6.536;2023-03-01T08:20:26;0.60;99.90
52034;DHT22;38045;52.988;6.536;2023-03-01T08:22:52;0.70;99.90
52034;DHT22;38045;52.988;6.536;2023-03-01T08:25:17;0.90;99.90
52034;DHT22;38045;52.988;6.536;2023-03-01T08:27:43;1.00;99.90
52034;DHT22;38045;52.988;6.536;2023-03-01T08:30:09;1.20;99.90
52034;DHT22;38045;52.988;6.536;2023-03-01T08:32:38;1.40;99.90
52034;DHT22;38045;52.988;6.536;2023-03-01T08:35:04;1.50;99.90
52034;DHT22;38045;52.988;6.536;2023-03-01T08:37:30;1.70;99.90
52034;DHT22;38045;52.988;6.536;2023-03-01T08:39:58;1.80;99.90
52034;DHT22;38045;52.988;6.536;2023-03-01T08:42:24;1.90;99.90
52034;DHT22;38045;52.988;6.536;2023-03-01T08:44:49;2.10;99.90
52034;DHT22;38045;52.988;6.536;2023-03-01T08:47:15;2.10;99.90
52034;DHT22;38045;52.988;6.536;2023-03-01T08:49:40;2.20;99.90
52034;DHT22;38045;52.988;6.536;2023-03-01T08:52:06;2.40;99.90
52034;DHT22;38045;52.988;6.536;2023-03-01T08:54:31;2.50;99.90
52034;DHT22;38045;52.988;6.536;2023-03-01T08:56:57;2.60;99.90
52034;DHT22;38045;52.988;6.536;2023-03-01T08:59:25;2.70;99.90
52034;DHT22;38045;52.988;6.536;2023-03-01T09:01:51;2.80;99.90
52034;DHT22;38045;52.988;6.536;2023-03-01T09:04:17;2.90;99.90
52034;DHT22;38045;52.988;6.536;2023-03-01T09:06:43;3.00;99.90
52034;DHT22;38045;52.988;6.536;2023-03-01T09:09:14;3.10;99.90
52034;DHT22;38045;52.988;6.536;2023-03-01T09:11:41;3.10;99.90
52034;DHT22;38045;52.988;6.536;2023-03-01T09:14:07;3.20;99.90
52034;DHT22;38045;52.988;6.536;2023-03-01T09:16:33;3.30;99.90
52034;DHT22;38045;52.988;6.536;2023-03-01T09:19:01;3.40;99.90
52034;DHT22;38045;52.988;6.536;2023-03-01T09:21:27;3.50;99.90
52034;DHT22;38045;52.988;6.536;2023-03-01T09:23:53;3.60;99.90
52034;DHT22;38045;52.988;6.536;2023-03-01T09:26:22;3.70;99.90
52034;DHT22;38045;52.988;6.536;2023-03-01T09:28:50;3.70;99.90
52034;DHT22;38045;52.988;6.536;2023-03-01T09:31:17;3.80;99.90
52034;DHT22;38045;52.988;6.536;2023-03-01T09:33:46;3.80;99.90
52034;DHT22;38045;52.988;6.536;2023-03-01T09:36:17;3.90;99.90
52034;DHT22;38045;52.988;6.536;2023-03-01T09:38:43;4.00;99.90
52034;DHT22;38045;52.988;6.536;2023-03-01T09:44:03;4.20;99.90
52034;DHT22;38045;52.988;6.536;2023-03-01T09:46:41;4.40;99.90
52034;DHT22;38045;52.988;6.536;2023-03-01T09:49:14;4.40;99.90
52034;DHT22;38045;52.988;6.536;2023-03-01T09:51:45;4.50;99.90
52034;DHT22;38045;52.988;6.536;2023-03-01T09:54:14;4.60;99.90
52034;DHT22;38045;52.988;6.536;2023-03-01T09:56:44;4.70;99.90
52034;DHT22;38045;52.988;6.536;2023-03-01T10:04:53;5.20;99.90
52034;DHT22;38045;52.988;6.536;2023-03-01T10:09:54;5.60;99.90
52034;DHT22;38045;52.988;6.536;2023-03-01T10:12:27;5.80;99.90
52034;DHT22;38045;52.988;6.536;2023-03-01T10:17:52;6.10;99.90
52034;DHT22;38045;52.988;6.536;2023-03-01T10:20:28;6.30;99.90
52034;DHT22;38045;52.988;6.536;2023-03-01T10:22:55;6.60;99.90
52034;DHT22;38045;52.988;6.536;2023-03-01T10:25:40;6.70;99.90
52034;DHT22;38045;52.988;6.536;2023-03-01T10:28:19;6.90;99.90
52034;DHT22;38045;52.988;6.536;2023-03-01T10:30:46;6.90;99.90
52034;DHT22;38045;52.988;6.536;2023-03-01T10:33:23;7.10;99.90
52034;DHT22;38045;52.988;6.536;2023-03-01T10:35:49;7.10;99.90
52034;DHT22;38045;52.988;6.536;2023-03-01T10:38:17;7.30;99.90
52034;DHT22;38045;52.988;6.536;2023-03-01T10:43:19;7.40;99.90
52034;DHT22;38045;52.988;6.536;2023-03-01T10:45:46;7.60;99.90
52034;DHT22;38045;52.988;6.536;2023-03-01T10:48:18;7.70;99.90
52034;DHT22;38045;52.988;6.536;2023-03-01T10:51:05;7.80;99.90
52034;DHT22;38045;52.988;6.536;2023-03-01T10:53:37;7.90;99.90
52034;DHT22;38045;52.988;6.536;2023-03-01T10:56:08;7.90;99.90
52034;DHT22;38045;52.988;6.536;2023-03-01T10:58:38;7.90;99.90
52034;DHT22;38045;52.988;6.536;2023-03-01T11:01:32;8.00;99.90
52034;DHT22;38045;52.988;6.536;2023-03-01T11:06:37;8.10;99.90
52034;DHT22;38045;52.988;6.536;2023-03-01T11:09:23;8.10;99.90
52034;DHT22;38045;52.988;6.536;2023-03-01T11:11:57;8.10;99.90
52034;DHT22;38045;52.988;6.536;2023-03-01T11:14:27;8.10;99.90
52034;DHT22;38045;52.988;6.536;2023-03-01T11:17:05;8.00;99.90
52034;DHT22;38045;52.988;6.536;2023-03-01T11:19:32;8.20;99.90
52034;DHT22;38045;52.988;6.536;2023-03-01T11:22:18;8.40;99.90
52034;DHT22;38045;52.988;6.536;2023-03-01T11:24:47;8.40;99.90
52034;DHT22;38045;52.988;6.536;2023-03-01T11:27:24;8.50;99.90
52034;DHT22;38045;52.988;6.536;2023-03-01T11:29:59;8.40;99.90
52034;DHT22;38045;52.988;6.536;2023-03-01T11:32:35;8.50;99.90
52034;DHT22;38045;52.988;6.536;2023-03-01T11:45:15;8.90;99.90
52034;DHT22;38045;52.988;6.536;2023-03-01T11:50:44;9.10;99.90
52034;DHT22;38045;52.988;6.536;2023-03-01T12:01:49;9.20;99.90
52034;DHT22;38045;52.988;6.536;2023-03-01T12:07:17;9.40;99.90
52034;DHT22;38045;52.988;6.536;2023-03-01T12:10:02;9.40;99.90
52034;DHT22;38045;52.988;6.536;2023-03-01T12:24:15;9.70;99.90
52034;DHT22;38045;52.988;6.536;2023-03-01T12:29:24;10.00;99.90
52034;DHT22;38045;52.988;6.536;2023-03-01T12:34:29;9.80;99.90
52034;DHT22;38045;52.988;6.536;2023-03-01T12:45:45;10.10;99.90
52034;DHT22;38045;52.988;6.536;2023-03-01T12:51:34;10.10;99.90
52034;DHT22;38045;52.988;6.536;2023-03-01T12:54:27;10.00;99.90
52034;DHT22;38045;52.988;6.536;2023-03-01T12:56:51;10.10;99.90
52034;DHT22;38045;52.988;6.536;2023-03-01T13:02:25;10.40;99.90
52034;DHT22;38045;52.988;6.536;2023-03-01T13:07:55;10.60;99.90
52034;DHT22;38045;52.988;6.536;2023-03-01T13:15:32;10.10;99.90
52034;DHT22;38045;52.988;6.536;2023-03-01T13:20:49;10.20;99.90
52034;DHT22;38045;52.988;6.536;2023-03-01T13:26:15;10.80;99.90
52034;DHT22;38045;52.988;6.536;2023-03-01T13:36:45;10.40;99.90
52034;DHT22;38045;52.988;6.536;2023-03-01T13:39:26;10.50;99.90
52034;DHT22;38045;52.988;6.536;2023-03-01T13:41:55;10.70;99.90
52034;DHT22;38045;52.988;6.536;2023-03-01T13:46:56;10.70;99.90
52034;DHT22;38045;52.988;6.536;2023-03-01T13:49:27;10.70;99.90
52034;DHT22;38045;52.988;6.536;2023-03-01T13:51:53;10.80;99.90
52034;DHT22;38045;52.988;6.536;2023-03-01T13:54:28;10.80;99.90
52034;DHT22;38045;52.988;6.536;2023-03-01T13:56:55;11.10;99.90
52034;DHT22;38045;52.988;6.536;2023-03-01T13:59:23;11.10;99.90
52034;DHT22;38045;52.988;6.536;2023-03-01T14:01:56;11.20;99.90
52034;DHT22;38045;52.988;6.536;2023-03-01T14:04:28;11.30;99.90
52034;DHT22;38045;52.988;6.536;2023-03-01T14:07:18;11.60;99.90
52034;DHT22;38045;52.988;6.536;2023-03-01T14:09:47;11.70;99.20
52034;DHT22;38045;52.988;6.536;2023-03-01T14:17:55;15.30;96.90
52034;DHT22;38045;52.988;6.536;2023-03-01T14:20:25;16.00;94.40
52034;DHT22;38045;52.988;6.536;2023-03-01T14:22:59;16.30;93.40
52034;DHT22;38045;52.988;6.536;2023-03-01T14:25:34;17.10;92.70
52034;DHT22;38045;52.988;6.536;2023-03-01T14:28:03;16.80;92.10
52034;DHT22;38045;52.988;6.536;2023-03-01T14:30:42;16.10;91.30
52034;DHT22;38045;52.988;6.536;2023-03-01T14:36:13;15.80;93.30
52034;DHT22;38045;52.988;6.536;2023-03-01T14:38:43;16.60;93.80
52034;DHT22;38045;52.988;6.536;2023-03-01T14:41:21;17.50;95.80
52034;DHT22;38045;52.988;6.536;2023-03-01T14:43:58;17.30;93.90
52034;DHT22;38045;52.988;6.536;2023-03-01T14:46:34;16.60;92.70
52034;DHT22;38045;52.988;6.536;2023-03-01T14:49:09;16.40;91.90
52034;DHT22;38045;52.988;6.536;2023-03-01T14:51:41;16.70;92.30
52034;DHT22;38045;52.988;6.536;2023-03-01T14:56:46;18.10;91.70
52034;DHT22;38045;52.988;6.536;2023-03-01T14:59:12;18.40;90.80
52034;DHT22;38045;52.988;6.536;2023-03-01T15:01:40;18.60;87.80
52034;DHT22;38045;52.988;6.536;2023-03-01T15:04:08;18.60;96.10
52034;DHT22;38045;52.988;6.536;2023-03-01T15:06:36;18.40;94.20
52034;DHT22;38045;52.988;6.536;2023-03-01T15:09:03;18.40;95.10
52034;DHT22;38045;52.988;6.536;2023-03-01T15:11:30;18.40;95.00
52034;DHT22;38045;52.988;6.536;2023-03-01T15:13:56;18.10;93.80
52034;DHT22;38045;52.988;6.536;2023-03-01T15:16:22;17.90;92.90
52034;DHT22;38045;52.988;6.536;2023-03-01T15:19:03;17.00;91.30
52034;DHT22;38045;52.988;6.536;2023-03-01T15:21:35;16.00;91.10
52034;DHT22;38045;52.988;6.536;2023-03-01T15:26:42;13.70;92.70
52034;DHT22;38045;52.988;6.536;2023-03-01T15:29:17;13.20;93.30
52034;DHT22;38045;52.988;6.536;2023-03-01T15:31:55;13.20;93.30
52034;DHT22;38045;52.988;6.536;2023-03-01T15:34:32;13.30;93.40
52034;DHT22;38045;52.988;6.536;2023-03-01T15:37:00;14.00;92.90
52034;DHT22;38045;52.988;6.536;2023-03-01T15:42:11;15.00;91.20
52034;DHT22;38045;52.988;6.536;2023-03-01T15:44:40;15.40;93.50
52034;DHT22;38045;52.988;6.536;2023-03-01T15:47:40;15.40;93.10
52034;DHT22;38045;52.988;6.536;2023-03-01T15:50:23;15.10;91.70
52034;DHT22;38045;52.988;6.536;2023-03-01T15:52:49;14.60;92.90
52034;DHT22;38045;52.988;6.536;2023-03-01T15:55:17;13.90;92.40
52034;DHT22;38045;52.988;6.536;2023-03-01T15:57:43;13.10;93.10
52034;DHT22;38045;52.988;6.536;2023-03-01T16:00:10;12.40;92.90
52034;DHT22;38045;52.988;6.536;2023-03-01T16:02:37;11.90;93.90
52034;DHT22;38045;52.988;6.536;2023-03-01T16:05:03;11.60;93.20
52034;DHT22;38045;52.988;6.536;2023-03-01T16:07:29;11.10;93.60
52034;DHT22;38045;52.988;6.536;2023-03-01T16:09:56;10.70;93.40
52034;DHT22;38045;52.988;6.536;2023-03-01T16:12:25;10.40;93.80
52034;DHT22;38045;52.988;6.536;2023-03-01T16:14:51;9.90;95.30
52034;DHT22;38045;52.988;6.536;2023-03-01T16:17:19;9.70;95.20
52034;DHT22;38045;52.988;6.536;2023-03-01T16:19:44;9.40;95.80
52034;DHT22;38045;52.988;6.536;2023-03-01T16:22:10;9.20;96.10
52034;DHT22;38045;52.988;6.536;2023-03-01T16:24:36;9.00;96.10
52034;DHT22;38045;52.988;6.536;2023-03-01T16:27:02;8.90;97.80
52034;DHT22;38045;52.988;6.536;2023-03-01T16:29:28;8.90;96.80
52034;DHT22;38045;52.988;6.536;2023-03-01T16:31:54;8.80;98.00
52034;DHT22;38045;52.988;6.536;2023-03-01T16:34:20;8.70;97.00
52034;DHT22;38045;52.988;6.536;2023-03-01T16:36:47;8.70;98.30
52034;DHT22;38045;52.988;6.536;2023-03-01T16:39:12;8.70;97.60
52034;DHT22;38045;52.988;6.536;2023-03-01T16:41:38;8.60;98.00
52034;DHT22;38045;52.988;6.536;2023-03-01T16:44:04;8.50;99.50
52034;DHT22;38045;52.988;6.536;2023-03-01T16:46:29;8.40;98.90
52034;DHT22;38045;52.988;6.536;2023-03-01T16:48:55;8.30;98.90
52034;DHT22;38045;52.988;6.536;2023-03-01T16:51:22;8.20;99.70
52034;DHT22;38045;52.988;6.536;2023-03-01T16:53:49;8.00;98.70
52034;DHT22;38045;52.988;6.536;2023-03-01T16:56:15;7.90;98.50
52034;DHT22;38045;52.988;6.536;2023-03-01T16:58:42;7.80;99.90
52034;DHT22;38045;52.988;6.536;2023-03-01T17:01:18;7.80;98.90
52034;DHT22;38045;52.988;6.536;2023-03-01T17:03:46;7.70;99.90
52034;DHT22;38045;52.988;6.536;2023-03-01T17:06:15;7.60;99.90
52034;DHT22;38045;52.988;6.536;2023-03-01T17:08:41;7.60;99.90
52034;DHT22;38045;52.988;6.536;2023-03-01T17:11:15;7.50;99.90
52034;DHT22;38045;52.988;6.536;2023-03-01T17:13:41;7.40;99.90
52034;DHT22;38045;52.988;6.536;2023-03-01T17:16:09;7.40;99.90
52034;DHT22;38045;52.988;6.536;2023-03-01T17:18:36;7.30;99.90
52034;DHT22;38045;52.988;6.536;2023-03-01T17:21:02;7.20;99.90
52034;DHT22;38045;52.988;6.536;2023-03-01T17:23:30;7.10;99.90
52034;DHT22;38045;52.988;6.536;2023-03-01T17:25:56;7.10;99.90
52034;DHT22;38045;52.988;6.536;2023-03-01T17:28:24;7.00;99.90
52034;DHT22;38045;52.988;6.536;2023-03-01T17:30:50;7.00;99.90
52034;DHT22;38045;52.988;6.536;2023-03-01T17:33:17;6.90;99.90
52034;DHT22;38045;52.988;6.536;2023-03-01T17:35:43;6.80;99.90
52034;DHT22;38045;52.988;6.536;2023-03-01T17:38:12;6.70;99.90
52034;DHT22;38045;52.988;6.536;2023-03-01T17:40:38;6.70;99.90
52034;DHT22;38045;52.988;6.536;2023-03-01T17:43:04;6.60;99.90
52034;DHT22;38045;52.988;6.536;2023-03-01T17:45:30;6.60;99.90
52034;DHT22;38045;52.988;6.536;2023-03-01T17:47:55;6.50;99.90
52034;DHT22;38045;52.988;6.536;2023-03-01T17:50:21;6.50;99.90